sensor_id;sensor_type;location;lat;lon;timestamp;P1;durP1;ratioP1;P2;durP2;ratioP2
66856;SDS011;53766;50.280;19.160;2023-06-24T00:01:07;5.40;;;2.58;;
66856;SDS011;53766;50.280;19.160;2023-06-24T00:03:36;5.53;;;2.30;;
66856;SDS011;53766;50.280;19.160;2023-06-24T00:06:04;4.30;;;2.50;;
66856;SDS011;53766;50.280;19.160;2023-06-24T00:08:32;5.53;;;2.45;;
66856;SDS011;53766;50.280;19.160;2023-06-24T00:11:01;5.25;;;2.67;;
66856;SDS011;53766;50.280;19.160;2023-06-24T00:13:30;7.03;;;2.70;;
66856;SDS011;53766;50.280;19.160;2023-06-24T00:15:58;6.00;;;2.58;;
66856;SDS011;53766;50.280;19.160;2023-06-24T00:18:26;7.03;;;2.75;;
66856;SDS011;53766;50.280;19.160;2023-06-24T00:20:56;4.30;;;2.20;;
66856;SDS011;53766;50.280;19.160;2023-06-24T00:23:24;4.53;;;2.85;;
66856;SDS011;53766;50.280;19.160;2023-06-24T00:25:54;4.47;;;2.85;;
66856;SDS011;53766;50.280;19.160;2023-06-24T00:28:22;6.65;;;3.00;;
66856;SDS011;53766;50.280;19.160;2023-06-24T00:30:51;5.95;;;2.70;;
66856;SDS011;53766;50.280;19.160;2023-06-24T00:33:18;5.47;;;2.85;;
66856;SDS011;53766;50.280;19.160;2023-06-24T00:35:47;6.15;;;2.75;;
66856;SDS011;53766;50.280;19.160;2023-06-24T00:38:14;5.38;;;2.72;;
66856;SDS011;53766;50.280;19.160;2023-06-24T00:40:42;5.55;;;2.92;;
66856;SDS011;53766;50.280;19.160;2023-06-24T00:43:10;5.07;;;2.80;;
66856;SDS011;53766;50.280;19.160;2023-06-24T00:45:37;5.78;;;3.13;;
66856;SDS011;53766;50.280;19.160;2023-06-24T00:48:06;6.63;;;2.90;;
66856;SDS011;53766;50.280;19.160;2023-06-24T00:50:36;5.85;;;3.20;;
66856;SDS011;53766;50.280;19.160;2023-06-24T00:53:04;6.03;;;3.15;;
66856;SDS011;53766;50.280;19.160;2023-06-24T00:55:34;9.30;;;2.92;;
66856;SDS011;53766;50.280;19.160;2023-06-24T00:58:02;5.70;;;3.00;;
66856;SDS011;53766;50.280;19.160;2023-06-24T01:00:29;6.43;;;2.85;;
66856;SDS011;53766;50.280;19.160;2023-06-24T01:03:00;4.75;;;3.03;;
66856;SDS011;53766;50.280;19.160;2023-06-24T01:05:28;5.10;;;2.97;;
66856;SDS011;53766;50.280;19.160;2023-06-24T01:07:55;7.63;;;3.15;;
66856;SDS011;53766;50.280;19.160;2023-06-24T01:10:24;7.72;;;3.08;;
66856;SDS011;53766;50.280;19.160;2023-06-24T01:12:52;6.70;;;2.85;;
66856;SDS011;53766;50.280;19.160;2023-06-24T01:15:19;6.72;;;3.00;;
66856;SDS011;53766;50.280;19.160;2023-06-24T01:17:54;5.43;;;3.15;;
66856;SDS011;53766;50.280;19.160;2023-06-24T01:20:36;6.25;;;3.20;;
66856;SDS011;53766;50.280;19.160;2023-06-24T01:25:44;7.03;;;3.28;;
66856;SDS011;53766;50.280;19.160;2023-06-24T01:34:20;7.32;;;3.03;;
66856;SDS011;53766;50.280;19.160;2023-06-24T01:39:42;8.05;;;3.35;;
66856;SDS011;53766;50.280;19.160;2023-06-24T01:42:42;7.05;;;3.13;;
66856;SDS011;53766;50.280;19.160;2023-06-24T01:45:16;7.80;;;3.47;;
66856;SDS011;53766;50.280;19.160;2023-06-24T01:47:48;8.88;;;3.70;;
66856;SDS011;53766;50.280;19.160;2023-06-24T01:50:39;9.30;;;3.47;;
66856;SDS011;53766;50.280;19.160;2023-06-24T01:53:17;6.63;;;3.20;;
66856;SDS011;53766;50.280;19.160;2023-06-24T01:55:47;7.68;;;3.30;;
66856;SDS011;53766;50.280;19.160;2023-06-24T01:58:16;8.65;;;3.60;;
66856;SDS011;53766;50.280;19.160;2023-06-24T02:00:45;6.20;;;3.33;;
66856;SDS011;53766;50.280;19.160;2023-06-24T02:03:13;7.22;;;3.63;;
66856;SDS011;53766;50.280;19.160;2023-06-24T02:05:42;9.55;;;3.20;;
66856;SDS011;53766;50.280;19.160;2023-06-24T02:08:12;7.72;;;3.55;;
66856;SDS011;53766;50.280;19.160;2023-06-24T02:10:41;5.28;;;3.28;;
66856;SDS011;53766;50.280;19.160;2023-06-24T02:13:10;6.32;;;3.30;;
66856;SDS011;53766;50.280;19.160;2023-06-24T02:15:39;5.13;;;3.10;;
66856;SDS011;53766;50.280;19.160;2023-06-24T02:18:08;7.22;;;3.30;;
66856;SDS011;53766;50.280;19.160;2023-06-24T02:20:38;5.95;;;2.95;;
66856;SDS011;53766;50.280;19.160;2023-06-24T02:23:07;6.35;;;3.40;;
66856;SDS011;53766;50.280;19.160;2023-06-24T02:25:36;7.50;;;4.18;;
66856;SDS011;53766;50.280;19.160;2023-06-24T02:28:07;6.60;;;3.25;;
66856;SDS011;53766;50.280;19.160;2023-06-24T02:30:37;8.32;;;3.33;;
66856;SDS011;53766;50.280;19.160;2023-06-24T02:33:05;6.35;;;3.17;;
66856;SDS011;53766;50.280;19.160;2023-06-24T02:35:33;7.30;;;3.20;;
66856;SDS011;53766;50.280;19.160;2023-06-24T02:38:01;9.43;;;4.05;;
66856;SDS011;53766;50.280;19.160;2023-06-24T02:40:30;9.50;;;3.70;;
66856;SDS011;53766;50.280;19.160;2023-06-24T02:42:58;7.85;;;3.85;;
66856;SDS011;53766;50.280;19.160;2023-06-24T02:45:26;9.02;;;4.55;;
66856;SDS011;53766;50.280;19.160;2023-06-24T02:47:54;9.23;;;4.25;;
66856;SDS011;53766;50.280;19.160;2023-06-24T02:50:23;8.10;;;4.18;;
66856;SDS011;53766;50.280;19.160;2023-06-24T02:52:51;9.32;;;4.07;;
66856;SDS011;53766;50.280;19.160;2023-06-24T02:55:19;8.88;;;4.13;;
66856;SDS011;53766;50.280;19.160;2023-06-24T02:57:47;7.47;;;4.20;;
66856;SDS011;53766;50.280;19.160;2023-06-24T03:00:16;6.85;;;3.92;;
66856;SDS011;53766;50.280;19.160;2023-06-24T03:02:44;10.27;;;4.65;;
66856;SDS011;53766;50.280;19.160;2023-06-24T03:05:14;6.50;;;4.22;;
66856;SDS011;53766;50.280;19.160;2023-06-24T03:07:42;9.57;;;4.22;;
66856;SDS011;53766;50.280;19.160;2023-06-24T03:10:10;7.80;;;4.70;;
66856;SDS011;53766;50.280;19.160;2023-06-24T03:12:37;13.25;;;4.75;;
66856;SDS011;53766;50.280;19.160;2023-06-24T03:15:05;7.20;;;3.65;;
66856;SDS011;53766;50.280;19.160;2023-06-24T03:17:33;7.45;;;3.97;;
66856;SDS011;53766;50.280;19.160;2023-06-24T03:20:01;7.68;;;4.07;;
66856;SDS011;53766;50.280;19.160;2023-06-24T03:22:28;8.77;;;4.35;;
66856;SDS011;53766;50.280;19.160;2023-06-24T03:24:56;6.65;;;3.92;;
66856;SDS011;53766;50.280;19.160;2023-06-24T03:27:24;8.70;;;4.18;;
66856;SDS011;53766;50.280;19.160;2023-06-24T03:29:52;6.82;;;3.80;;
66856;SDS011;53766;50.280;19.160;2023-06-24T03:32:19;6.22;;;3.92;;
66856;SDS011;53766;50.280;19.160;2023-06-24T03:34:47;8.98;;;4.00;;
66856;SDS011;53766;50.280;19.160;2023-06-24T03:37:14;7.20;;;3.70;;
66856;SDS011;53766;50.280;19.160;2023-06-24T03:39:43;8.43;;;3.85;;
66856;SDS011;53766;50.280;19.160;2023-06-24T03:42:10;11.13;;;4.22;;
66856;SDS011;53766;50.280;19.160;2023-06-24T03:44:38;6.68;;;3.97;;
66856;SDS011;53766;50.280;19.160;2023-06-24T03:47:05;9.88;;;3.90;;
66856;SDS011;53766;50.280;19.160;2023-06-24T03:49:33;5.38;;;3.90;;
66856;SDS011;53766;50.280;19.160;2023-06-24T03:52:00;6.35;;;3.78;;
66856;SDS011;53766;50.280;19.160;2023-06-24T03:54:28;6.85;;;3.50;;
66856;SDS011;53766;50.280;19.160;2023-06-24T03:56:55;5.85;;;3.60;;
66856;SDS011;53766;50.280;19.160;2023-06-24T03:59:23;6.68;;;3.80;;
66856;SDS011;53766;50.280;19.160;2023-06-24T04:01:51;7.05;;;3.40;;
66856;SDS011;53766;50.280;19.160;2023-06-24T04:04:19;9.20;;;3.70;;
66856;SDS011;53766;50.280;19.160;2023-06-24T04:06:46;7.22;;;3.78;;
66856;SDS011;53766;50.280;19.160;2023-06-24T04:09:14;7.20;;;3.70;;
66856;SDS011;53766;50.280;19.160;2023-06-24T04:11:41;5.68;;;3.53;;
66856;SDS011;53766;50.280;19.160;2023-06-24T04:14:09;9.82;;;4.03;;
66856;SDS011;53766;50.280;19.160;2023-06-24T04:16:36;6.80;;;4.10;;
66856;SDS011;53766;50.280;19.160;2023-06-24T04:19:04;8.80;;;4.20;;
66856;SDS011;53766;50.280;19.160;2023-06-24T04:21:31;7.93;;;4.18;;
66856;SDS011;53766;50.280;19.160;2023-06-24T04:23:59;9.15;;;4.97;;
66856;SDS011;53766;50.280;19.160;2023-06-24T04:26:26;11.27;;;6.30;;
66856;SDS011;53766;50.280;19.160;2023-06-24T04:28:54;9.52;;;6.80;;
66856;SDS011;53766;50.280;19.160;2023-06-24T04:31:21;13.60;;;7.53;;
66856;SDS011;53766;50.280;19.160;2023-06-24T04:33:49;13.05;;;7.25;;
66856;SDS011;53766;50.280;19.160;2023-06-24T04:36:16;13.80;;;8.00;;
66856;SDS011;53766;50.280;19.160;2023-06-24T04:38:44;13.02;;;8.13;;
66856;SDS011;53766;50.280;19.160;2023-06-24T04:41:11;15.65;;;8.57;;
66856;SDS011;53766;50.280;19.160;2023-06-24T04:43:39;12.38;;;8.70;;
66856;SDS011;53766;50.280;19.160;2023-06-24T04:46:06;12.93;;;9.02;;
66856;SDS011;53766;50.280;19.160;2023-06-24T04:48:33;16.00;;;8.85;;
66856;SDS011;53766;50.280;19.160;2023-06-24T04:51:01;17.27;;;9.93;;
66856;SDS011;53766;50.280;19.160;2023-06-24T04:53:29;18.63;;;11.07;;
66856;SDS011;53766;50.280;19.160;2023-06-24T04:55:56;16.75;;;10.85;;
66856;SDS011;53766;50.280;19.160;2023-06-24T04:58:24;18.08;;;10.50;;
66856;SDS011;53766;50.280;19.160;2023-06-24T05:00:51;19.98;;;11.82;;
66856;SDS011;53766;50.280;19.160;2023-06-24T05:03:19;17.80;;;10.25;;
66856;SDS011;53766;50.280;19.160;2023-06-24T05:05:46;16.50;;;10.68;;
66856;SDS011;53766;50.280;19.160;2023-06-24T05:08:14;17.92;;;11.77;;
66856;SDS011;53766;50.280;19.160;2023-06-24T05:10:41;20.48;;;11.10;;
66856;SDS011;53766;50.280;19.160;2023-06-24T05:13:09;17.58;;;11.70;;
66856;SDS011;53766;50.280;19.160;2023-06-24T05:15:36;17.27;;;11.50;;
66856;SDS011;53766;50.280;19.160;2023-06-24T05:18:04;16.50;;;11.23;;
66856;SDS011;53766;50.280;19.160;2023-06-24T05:20:32;22.20;;;11.38;;
66856;SDS011;53766;50.280;19.160;2023-06-24T05:23:00;18.80;;;11.57;;
66856;SDS011;53766;50.280;19.160;2023-06-24T05:25:27;18.92;;;11.55;;
66856;SDS011;53766;50.280;19.160;2023-06-24T05:27:55;19.25;;;11.82;;
66856;SDS011;53766;50.280;19.160;2023-06-24T05:30:22;17.10;;;11.13;;
66856;SDS011;53766;50.280;19.160;2023-06-24T05:32:50;17.77;;;11.85;;
66856;SDS011;53766;50.280;19.160;2023-06-24T05:35:18;15.65;;;11.20;;
66856;SDS011;53766;50.280;19.160;2023-06-24T05:37:45;18.58;;;11.65;;
66856;SDS011;53766;50.280;19.160;2023-06-24T05:40:13;16.25;;;11.27;;
66856;SDS011;53766;50.280;19.160;2023-06-24T05:42:41;19.50;;;10.88;;
66856;SDS011;53766;50.280;19.160;2023-06-24T05:45:08;17.88;;;11.35;;
66856;SDS011;53766;50.280;19.160;2023-06-24T05:47:37;17.65;;;10.57;;
66856;SDS011;53766;50.280;19.160;2023-06-24T05:50:05;21.42;;;11.95;;
66856;SDS011;53766;50.280;19.160;2023-06-24T05:52:33;19.05;;;10.50;;
66856;SDS011;53766;50.280;19.160;2023-06-24T05:55:01;19.23;;;11.18;;
66856;SDS011;53766;50.280;19.160;2023-06-24T05:57:29;20.15;;;11.45;;
66856;SDS011;53766;50.280;19.160;2023-06-24T05:59:56;19.20;;;10.65;;
66856;SDS011;53766;50.280;19.160;2023-06-24T06:02:24;17.40;;;10.65;;
66856;SDS011;53766;50.280;19.160;2023-06-24T06:04:51;17.73;;;11.18;;
66856;SDS011;53766;50.280;19.160;2023-06-24T06:07:19;17.13;;;10.20;;
66856;SDS011;53766;50.280;19.160;2023-06-24T06:09:46;20.88;;;10.57;;
66856;SDS011;53766;50.280;19.160;2023-06-24T06:12:14;16.08;;;9.65;;
66856;SDS011;53766;50.280;19.160;2023-06-24T06:14:41;16.55;;;9.38;;
66856;SDS011;53766;50.280;19.160;2023-06-24T06:17:09;13.55;;;9.10;;
66856;SDS011;53766;50.280;19.160;2023-06-24T06:19:36;13.68;;;8.43;;
66856;SDS011;53766;50.280;19.160;2023-06-24T06:22:07;16.13;;;8.55;;
66856;SDS011;53766;50.280;19.160;2023-06-24T06:24:34;13.23;;;8.15;;
66856;SDS011;53766;50.280;19.160;2023-06-24T06:27:02;10.98;;;7.85;;
66856;SDS011;53766;50.280;19.160;2023-06-24T06:29:29;12.50;;;7.70;;
66856;SDS011;53766;50.280;19.160;2023-06-24T06:31:57;14.10;;;7.28;;
66856;SDS011;53766;50.280;19.160;2023-06-24T06:34:24;11.80;;;6.60;;
66856;SDS011;53766;50.280;19.160;2023-06-24T06:36:52;11.07;;;6.80;;
66856;SDS011;53766;50.280;19.160;2023-06-24T06:39:19;15.40;;;7.05;;
66856;SDS011;53766;50.280;19.160;2023-06-24T06:41:47;9.18;;;6.40;;
66856;SDS011;53766;50.280;19.160;2023-06-24T06:44:14;8.23;;;6.22;;
66856;SDS011;53766;50.280;19.160;2023-06-24T06:46:42;10.27;;;6.30;;
66856;SDS011;53766;50.280;19.160;2023-06-24T06:49:10;12.88;;;6.15;;
66856;SDS011;53766;50.280;19.160;2023-06-24T06:51:37;10.65;;;5.72;;
66856;SDS011;53766;50.280;19.160;2023-06-24T06:54:05;8.98;;;5.82;;
66856;SDS011;53766;50.280;19.160;2023-06-24T06:56:32;11.13;;;5.60;;
66856;SDS011;53766;50.280;19.160;2023-06-24T06:59:00;16.65;;;6.20;;
66856;SDS011;53766;50.280;19.160;2023-06-24T07:01:27;13.38;;;5.72;;
66856;SDS011;53766;50.280;19.160;2023-06-24T07:03:54;10.80;;;5.75;;
66856;SDS011;53766;50.280;19.160;2023-06-24T07:06:23;14.48;;;5.72;;
66856;SDS011;53766;50.280;19.160;2023-06-24T07:08:50;14.07;;;5.90;;
66856;SDS011;53766;50.280;19.160;2023-06-24T07:11:18;11.90;;;5.20;;
66856;SDS011;53766;50.280;19.160;2023-06-24T07:13:45;12.77;;;5.20;;
66856;SDS011;53766;50.280;19.160;2023-06-24T07:16:13;14.50;;;5.63;;
66856;SDS011;53766;50.280;19.160;2023-06-24T07:18:40;11.00;;;5.65;;
66856;SDS011;53766;50.280;19.160;2023-06-24T07:21:08;11.32;;;5.13;;
66856;SDS011;53766;50.280;19.160;2023-06-24T07:23:35;9.52;;;5.50;;
66856;SDS011;53766;50.280;19.160;2023-06-24T07:26:03;10.38;;;5.47;;
66856;SDS011;53766;50.280;19.160;2023-06-24T07:28:30;12.27;;;5.53;;
66856;SDS011;53766;50.280;19.160;2023-06-24T07:30:58;8.98;;;5.25;;
66856;SDS011;53766;50.280;19.160;2023-06-24T07:33:25;11.05;;;5.07;;
66856;SDS011;53766;50.280;19.160;2023-06-24T07:35:53;8.77;;;5.05;;
66856;SDS011;53766;50.280;19.160;2023-06-24T07:38:20;10.65;;;5.22;;
66856;SDS011;53766;50.280;19.160;2023-06-24T07:40:48;12.32;;;5.03;;
66856;SDS011;53766;50.280;19.160;2023-06-24T07:43:15;12.07;;;4.97;;
66856;SDS011;53766;50.280;19.160;2023-06-24T07:45:43;9.85;;;4.72;;
66856;SDS011;53766;50.280;19.160;2023-06-24T07:48:11;18.98;;;5.40;;
66856;SDS011;53766;50.280;19.160;2023-06-24T07:50:38;13.77;;;5.07;;
66856;SDS011;53766;50.280;19.160;2023-06-24T07:53:06;9.30;;;4.93;;
66856;SDS011;53766;50.280;19.160;2023-06-24T07:55:34;11.57;;;4.65;;
66856;SDS011;53766;50.280;19.160;2023-06-24T07:58:02;6.75;;;4.22;;
66856;SDS011;53766;50.280;19.160;2023-06-24T08:00:30;10.70;;;4.65;;
66856;SDS011;53766;50.280;19.160;2023-06-24T08:02:58;9.48;;;4.72;;
66856;SDS011;53766;50.280;19.160;2023-06-24T08:05:26;8.88;;;4.50;;
66856;SDS011;53766;50.280;19.160;2023-06-24T08:07:54;7.63;;;4.65;;
66856;SDS011;53766;50.280;19.160;2023-06-24T08:10:21;7.95;;;4.30;;
66856;SDS011;53766;50.280;19.160;2023-06-24T08:12:49;8.77;;;4.50;;
66856;SDS011;53766;50.280;19.160;2023-06-24T08:15:16;8.60;;;4.78;;
66856;SDS011;53766;50.280;19.160;2023-06-24T08:17:44;12.95;;;4.57;;
66856;SDS011;53766;50.280;19.160;2023-06-24T08:20:17;7.20;;;4.43;;
66856;SDS011;53766;50.280;19.160;2023-06-24T08:22:45;9.52;;;4.80;;
66856;SDS011;53766;50.280;19.160;2023-06-24T08:25:12;8.90;;;4.55;;
66856;SDS011;53766;50.280;19.160;2023-06-24T08:27:40;10.32;;;4.10;;
66856;SDS011;53766;50.280;19.160;2023-06-24T08:30:08;7.20;;;4.50;;
66856;SDS011;53766;50.280;19.160;2023-06-24T08:32:36;9.75;;;4.68;;
66856;SDS011;53766;50.280;19.160;2023-06-24T08:35:04;8.88;;;4.78;;
66856;SDS011;53766;50.280;19.160;2023-06-24T08:37:31;9.90;;;4.88;;
66856;SDS011;53766;50.280;19.160;2023-06-24T08:39:59;10.23;;;5.00;;
66856;SDS011;53766;50.280;19.160;2023-06-24T08:42:26;7.97;;;4.93;;
66856;SDS011;53766;50.280;19.160;2023-06-24T08:44:54;11.10;;;5.70;;
66856;SDS011;53766;50.280;19.160;2023-06-24T08:47:23;9.98;;;5.40;;
66856;SDS011;53766;50.280;19.160;2023-06-24T08:49:52;11.30;;;5.60;;
66856;SDS011;53766;50.280;19.160;2023-06-24T08:52:25;12.07;;;5.38;;
66856;SDS011;53766;50.280;19.160;2023-06-24T08:54:55;11.73;;;5.50;;
66856;SDS011;53766;50.280;19.160;2023-06-24T08:57:26;9.98;;;5.30;;
66856;SDS011;53766;50.280;19.160;2023-06-24T08:59:54;9.60;;;5.75;;
66856;SDS011;53766;50.280;19.160;2023-06-24T09:02:21;8.30;;;5.30;;
66856;SDS011;53766;50.280;19.160;2023-06-24T09:04:50;8.15;;;5.68;;
66856;SDS011;53766;50.280;19.160;2023-06-24T09:07:28;9.20;;;5.32;;
66856;SDS011;53766;50.280;19.160;2023-06-24T09:09:56;8.98;;;5.43;;
66856;SDS011;53766;50.280;19.160;2023-06-24T09:12:26;7.03;;;5.13;;
66856;SDS011;53766;50.280;19.160;2023-06-24T09:14:54;13.77;;;5.65;;
66856;SDS011;53766;50.280;19.160;2023-06-24T09:17:21;8.00;;;5.65;;
66856;SDS011;53766;50.280;19.160;2023-06-24T09:19:50;9.93;;;5.20;;
66856;SDS011;53766;50.280;19.160;2023-06-24T09:22:18;11.52;;;5.65;;
66856;SDS011;53766;50.280;19.160;2023-06-24T09:24:47;8.90;;;5.53;;
66856;SDS011;53766;50.280;19.160;2023-06-24T09:27:16;6.90;;;5.53;;
66856;SDS011;53766;50.280;19.160;2023-06-24T09:29:47;6.72;;;5.00;;
66856;SDS011;53766;50.280;19.160;2023-06-24T09:32:15;10.55;;;5.78;;
66856;SDS011;53766;50.280;19.160;2023-06-24T09:34:43;8.27;;;5.18;;
66856;SDS011;53766;50.280;19.160;2023-06-24T09:37:10;8.02;;;5.28;;
66856;SDS011;53766;50.280;19.160;2023-06-24T09:39:48;8.93;;;5.10;;
66856;SDS011;53766;50.280;19.160;2023-06-24T09:42:15;8.57;;;5.25;;
66856;SDS011;53766;50.280;19.160;2023-06-24T09:44:55;10.02;;;5.45;;
66856;SDS011;53766;50.280;19.160;2023-06-24T09:47:23;7.47;;;4.88;;
66856;SDS011;53766;50.280;19.160;2023-06-24T09:49:53;7.05;;;5.10;;
66856;SDS011;53766;50.280;19.160;2023-06-24T09:52:21;6.40;;;4.80;;
66856;SDS011;53766;50.280;19.160;2023-06-24T09:54:50;7.95;;;5.03;;
66856;SDS011;53766;50.280;19.160;2023-06-24T09:57:24;8.40;;;4.72;;
66856;SDS011;53766;50.280;19.160;2023-06-24T09:59:56;7.55;;;5.30;;
66856;SDS011;53766;50.280;19.160;2023-06-24T10:02:28;8.30;;;5.13;;
66856;SDS011;53766;50.280;19.160;2023-06-24T10:04:59;9.43;;;5.35;;
66856;SDS011;53766;50.280;19.160;2023-06-24T10:07:28;7.00;;;4.93;;
66856;SDS011;53766;50.280;19.160;2023-06-24T10:09:56;8.00;;;4.97;;
66856;SDS011;53766;50.280;19.160;2023-06-24T10:12:24;8.52;;;5.35;;
66856;SDS011;53766;50.280;19.160;2023-06-24T10:14:53;7.63;;;5.00;;
66856;SDS011;53766;50.280;19.160;2023-06-24T10:17:21;6.68;;;4.82;;
66856;SDS011;53766;50.280;19.160;2023-06-24T10:19:51;7.38;;;5.05;;
66856;SDS011;53766;50.280;19.160;2023-06-24T10:22:24;9.55;;;5.30;;
66856;SDS011;53766;50.280;19.160;2023-06-24T10:24:53;7.82;;;4.72;;
66856;SDS011;53766;50.280;19.160;2023-06-24T10:27:21;8.88;;;5.60;;
66856;SDS011;53766;50.280;19.160;2023-06-24T10:29:50;9.05;;;5.45;;
66856;SDS011;53766;50.280;19.160;2023-06-24T10:32:22;9.38;;;5.90;;
66856;SDS011;53766;50.280;19.160;2023-06-24T10:34:54;12.13;;;5.47;;
66856;SDS011;53766;50.280;19.160;2023-06-24T10:37:23;8.02;;;5.25;;
66856;SDS011;53766;50.280;19.160;2023-06-24T10:39:53;9.77;;;5.63;;
66856;SDS011;53766;50.280;19.160;2023-06-24T10:42:25;16.25;;;5.88;;
66856;SDS011;53766;50.280;19.160;2023-06-24T10:45:14;10.63;;;6.47;;
66856;SDS011;53766;50.280;19.160;2023-06-24T10:47:44;11.45;;;6.10;;
66856;SDS011;53766;50.280;19.160;2023-06-24T10:50:15;8.35;;;5.95;;
66856;SDS011;53766;50.280;19.160;2023-06-24T10:52:47;12.70;;;6.00;;
66856;SDS011;53766;50.280;19.160;2023-06-24T10:55:17;8.93;;;6.35;;
66856;SDS011;53766;50.280;19.160;2023-06-24T10:57:45;8.18;;;5.60;;
66856;SDS011;53766;50.280;19.160;2023-06-24T11:00:13;7.72;;;5.53;;
66856;SDS011;53766;50.280;19.160;2023-06-24T11:02:42;8.98;;;6.10;;
66856;SDS011;53766;50.280;19.160;2023-06-24T11:05:10;9.05;;;5.93;;
66856;SDS011;53766;50.280;19.160;2023-06-24T11:07:37;8.73;;;5.65;;
66856;SDS011;53766;50.280;19.160;2023-06-24T11:10:13;7.93;;;5.85;;
66856;SDS011;53766;50.280;19.160;2023-06-24T11:12:41;7.38;;;5.78;;
66856;SDS011;53766;50.280;19.160;2023-06-24T11:15:11;11.95;;;5.75;;
66856;SDS011;53766;50.280;19.160;2023-06-24T11:17:40;10.57;;;5.95;;
66856;SDS011;53766;50.280;19.160;2023-06-24T11:20:12;11.30;;;5.70;;
66856;SDS011;53766;50.280;19.160;2023-06-24T11:22:42;11.27;;;5.90;;
66856;SDS011;53766;50.280;19.160;2023-06-24T11:25:14;12.10;;;5.45;;
66856;SDS011;53766;50.280;19.160;2023-06-24T11:27:51;11.07;;;5.82;;
66856;SDS011;53766;50.280;19.160;2023-06-24T11:30:21;8.95;;;6.10;;
66856;SDS011;53766;50.280;19.160;2023-06-24T11:32:49;7.93;;;6.40;;
66856;SDS011;53766;50.280;19.160;2023-06-24T11:35:17;8.52;;;6.00;;
66856;SDS011;53766;50.280;19.160;2023-06-24T11:37:45;11.00;;;5.70;;
66856;SDS011;53766;50.280;19.160;2023-06-24T11:40:16;7.80;;;5.32;;
66856;SDS011;53766;50.280;19.160;2023-06-24T11:42:46;10.88;;;6.13;;
66856;SDS011;53766;50.280;19.160;2023-06-24T11:45:19;9.00;;;5.90;;
66856;SDS011;53766;50.280;19.160;2023-06-24T11:47:47;9.38;;;5.53;;
66856;SDS011;53766;50.280;19.160;2023-06-24T11:50:25;7.15;;;5.57;;
66856;SDS011;53766;50.280;19.160;2023-06-24T11:52:54;10.63;;;5.88;;
66856;SDS011;53766;50.280;19.160;2023-06-24T11:55:25;9.98;;;6.10;;
66856;SDS011;53766;50.280;19.160;2023-06-24T12:00:40;7.80;;;5.53;;
66856;SDS011;53766;50.280;19.160;2023-06-24T12:03:10;9.45;;;5.32;;
66856;SDS011;53766;50.280;19.160;2023-06-24T12:05:40;10.00;;;5.72;;
66856;SDS011;53766;50.280;19.160;2023-06-24T12:08:13;11.60;;;6.63;;
66856;SDS011;53766;50.280;19.160;2023-06-24T12:10:43;9.48;;;6.03;;
66856;SDS011;53766;50.280;19.160;2023-06-24T12:13:12;12.32;;;5.95;;
66856;SDS011;53766;50.280;19.160;2023-06-24T12:15:40;7.72;;;5.20;;
66856;SDS011;53766;50.280;19.160;2023-06-24T12:18:07;8.70;;;5.63;;
66856;SDS011;53766;50.280;19.160;2023-06-24T12:20:35;10.38;;;5.85;;
66856;SDS011;53766;50.280;19.160;2023-06-24T12:23:05;11.38;;;5.93;;
66856;SDS011;53766;50.280;19.160;2023-06-24T12:25:34;10.38;;;6.07;;
66856;SDS011;53766;50.280;19.160;2023-06-24T12:28:01;8.85;;;6.05;;
66856;SDS011;53766;50.280;19.160;2023-06-24T12:30:29;10.05;;;6.10;;
66856;SDS011;53766;50.280;19.160;2023-06-24T12:32:56;11.43;;;5.85;;
66856;SDS011;53766;50.280;19.160;2023-06-24T12:35:25;12.32;;;5.80;;
66856;SDS011;53766;50.280;19.160;2023-06-24T12:37:53;13.80;;;5.82;;
66856;SDS011;53766;50.280;19.160;2023-06-24T12:40:21;10.98;;;5.45;;
66856;SDS011;53766;50.280;19.160;2023-06-24T12:42:48;8.63;;;5.50;;
66856;SDS011;53766;50.280;19.160;2023-06-24T12:45:16;7.03;;;4.72;;
66856;SDS011;53766;50.280;19.160;2023-06-24T12:47:43;7.15;;;4.53;;
66856;SDS011;53766;50.280;19.160;2023-06-24T12:50:11;8.90;;;4.97;;
66856;SDS011;53766;50.280;19.160;2023-06-24T12:52:38;8.55;;;4.93;;
66856;SDS011;53766;50.280;19.160;2023-06-24T12:55:07;7.80;;;4.82;;
66856;SDS011;53766;50.280;19.160;2023-06-24T12:57:35;8.60;;;4.35;;
66856;SDS011;53766;50.280;19.160;2023-06-24T13:00:03;7.65;;;4.40;;
66856;SDS011;53766;50.280;19.160;2023-06-24T13:02:35;10.95;;;4.40;;
66856;SDS011;53766;50.280;19.160;2023-06-24T13:05:03;7.85;;;4.70;;
66856;SDS011;53766;50.280;19.160;2023-06-24T13:07:31;10.80;;;4.63;;
66856;SDS011;53766;50.280;19.160;2023-06-24T13:09:59;9.75;;;5.15;;
66856;SDS011;53766;50.280;19.160;2023-06-24T13:12:28;9.55;;;4.40;;
66856;SDS011;53766;50.280;19.160;2023-06-24T13:14:56;8.82;;;4.90;;
66856;SDS011;53766;50.280;19.160;2023-06-24T13:17:23;7.82;;;4.30;;
66856;SDS011;53766;50.280;19.160;2023-06-24T13:19:52;9.57;;;4.82;;
66856;SDS011;53766;50.280;19.160;2023-06-24T13:22:19;8.48;;;4.40;;
66856;SDS011;53766;50.280;19.160;2023-06-24T13:24:47;12.05;;;4.78;;
66856;SDS011;53766;50.280;19.160;2023-06-24T13:27:14;11.50;;;5.18;;
66856;SDS011;53766;50.280;19.160;2023-06-24T13:29:43;7.88;;;4.80;;
66856;SDS011;53766;50.280;19.160;2023-06-24T13:32:11;9.13;;;5.15;;
66856;SDS011;53766;50.280;19.160;2023-06-24T13:34:39;10.85;;;5.20;;
66856;SDS011;53766;50.280;19.160;2023-06-24T13:37:06;10.68;;;5.28;;
66856;SDS011;53766;50.280;19.160;2023-06-24T13:39:34;8.68;;;5.50;;
66856;SDS011;53766;50.280;19.160;2023-06-24T13:42:02;11.00;;;4.97;;
66856;SDS011;53766;50.280;19.160;2023-06-24T13:44:29;9.02;;;5.07;;
66856;SDS011;53766;50.280;19.160;2023-06-24T13:46:57;7.63;;;4.65;;
66856;SDS011;53766;50.280;19.160;2023-06-24T13:49:25;10.63;;;5.35;;
66856;SDS011;53766;50.280;19.160;2023-06-24T13:51:53;11.70;;;5.45;;
66856;SDS011;53766;50.280;19.160;2023-06-24T13:54:21;6.88;;;4.50;;
66856;SDS011;53766;50.280;19.160;2023-06-24T13:56:48;10.13;;;5.47;;
66856;SDS011;53766;50.280;19.160;2023-06-24T13:59:16;8.85;;;4.82;;
66856;SDS011;53766;50.280;19.160;2023-06-24T14:01:43;7.82;;;4.70;;
66856;SDS011;53766;50.280;19.160;2023-06-24T14:04:11;10.95;;;5.05;;
66856;SDS011;53766;50.280;19.160;2023-06-24T14:06:38;8.23;;;5.35;;
66856;SDS011;53766;50.280;19.160;2023-06-24T14:09:07;15.10;;;5.40;;
66856;SDS011;53766;50.280;19.160;2023-06-24T14:11:34;8.90;;;5.75;;
66856;SDS011;53766;50.280;19.160;2023-06-24T14:14:02;8.55;;;5.22;;
66856;SDS011;53766;50.280;19.160;2023-06-24T14:16:29;11.25;;;5.28;;
66856;SDS011;53766;50.280;19.160;2023-06-24T14:18:57;10.60;;;5.15;;
66856;SDS011;53766;50.280;19.160;2023-06-24T14:21:25;7.88;;;5.05;;
66856;SDS011;53766;50.280;19.160;2023-06-24T14:23:53;11.23;;;5.47;;
66856;SDS011;53766;50.280;19.160;2023-06-24T14:26:23;9.07;;;4.85;;
66856;SDS011;53766;50.280;19.160;2023-06-24T14:28:53;8.07;;;5.00;;
66856;SDS011;53766;50.280;19.160;2023-06-24T14:31:20;9.27;;;5.07;;
66856;SDS011;53766;50.280;19.160;2023-06-24T14:33:48;10.50;;;5.10;;
66856;SDS011;53766;50.280;19.160;2023-06-24T14:36:16;9.63;;;5.05;;
66856;SDS011;53766;50.280;19.160;2023-06-24T14:38:43;9.98;;;4.65;;
66856;SDS011;53766;50.280;19.160;2023-06-24T14:41:11;9.00;;;4.97;;
66856;SDS011;53766;50.280;19.160;2023-06-24T14:43:39;9.38;;;4.75;;
66856;SDS011;53766;50.280;19.160;2023-06-24T14:46:06;6.85;;;4.50;;
66856;SDS011;53766;50.280;19.160;2023-06-24T14:48:34;8.57;;;4.50;;
66856;SDS011;53766;50.280;19.160;2023-06-24T14:51:03;10.05;;;5.00;;